sensor_id;sensor_type;location;lat;lon;timestamp;temperature;humidity
32728;DHT22;55292;51.844;19.246;2023-09-18T00:01:39;14.80;99.90
32728;DHT22;55292;51.844;19.246;2023-09-18T00:06:42;14.80;99.90
32728;DHT22;55292;51.844;19.246;2023-09-18T00:11:45;14.80;99.90
32728;DHT22;55292;51.844;19.246;2023-09-18T00:16:47;14.80;99.90
32728;DHT22;55292;51.844;19.246;2023-09-18T00:22:00;14.90;99.90
32728;DHT22;55292;51.844;19.246;2023-09-18T00:27:03;15.00;99.90
32728;DHT22;55292;51.844;19.246;2023-09-18T00:32:06;14.60;99.90
32728;DHT22;55292;51.844;19.246;2023-09-18T00:37:09;14.60;99.90
32728;DHT22;55292;51.844;19.246;2023-09-18T00:42:15;14.50;99.90
32728;DHT22;55292;51.844;19.246;2023-09-18T00:47:20;14.40;99.90
32728;DHT22;55292;51.844;19.246;2023-09-18T00:52:23;14.20;99.90
32728;DHT22;55292;51.844;19.246;2023-09-18T00:57:28;14.10;99.90
32728;DHT22;55292;51.844;19.246;2023-09-18T01:02:31;14.20;99.90
32728;DHT22;55292;51.844;19.246;2023-09-18T01:07:34;14.20;99.90
32728;DHT22;55292;51.844;19.246;2023-09-18T01:17:48;14.30;99.90
32728;DHT22;55292;51.844;19.246;2023-09-18T01:22:52;14.30;99.90
32728;DHT22;55292;51.844;19.246;2023-09-18T01:27:55;14.50;99.90
32728;DHT22;55292;51.844;19.246;2023-09-18T01:32:59;14.40;99.90
32728;DHT22;55292;51.844;19.246;2023-09-18T01:38:03;14.50;99.90
32728;DHT22;55292;51.844;19.246;2023-09-18T01:43:07;14.50;99.90
32728;DHT22;55292;51.844;19.246;2023-09-18T01:48:10;14.50;99.90
32728;DHT22;55292;51.844;19.246;2023-09-18T01:53:12;14.30;99.90
32728;DHT22;55292;51.844;19.246;2023-09-18T01:58:15;14.10;99.90
32728;DHT22;55292;51.844;19.246;2023-09-18T02:03:19;14.00;99.90
32728;DHT22;55292;51.844;19.246;2023-09-18T02:08:43;13.90;99.90
32728;DHT22;55292;51.844;19.246;2023-09-18T02:13:45;13.80;99.90
32728;DHT22;55292;51.844;19.246;2023-09-18T02:18:48;13.70;99.90
32728;DHT22;55292;51.844;19.246;2023-09-18T02:23:52;13.70;99.90
32728;DHT22;55292;51.844;19.246;2023-09-18T02:28:59;13.90;99.90
32728;DHT22;55292;51.844;19.246;2023-09-18T02:34:02;14.10;99.90
32728;DHT22;55292;51.844;19.246;2023-09-18T02:39:05;14.00;99.90
32728;DHT22;55292;51.844;19.246;2023-09-18T02:44:08;13.70;99.90
32728;DHT22;55292;51.844;19.246;2023-09-18T02:49:11;13.60;99.90
32728;DHT22;55292;51.844;19.246;2023-09-18T02:54:14;13.60;99.90
32728;DHT22;55292;51.844;19.246;2023-09-18T02:59:17;13.60;99.90
32728;DHT22;55292;51.844;19.246;2023-09-18T03:04:20;13.50;99.90
32728;DHT22;55292;51.844;19.246;2023-09-18T03:09:24;13.50;99.90
32728;DHT22;55292;51.844;19.246;2023-09-18T03:14:27;13.50;99.90
32728;DHT22;55292;51.844;19.246;2023-09-18T03:19:30;13.50;99.90
32728;DHT22;55292;51.844;19.246;2023-09-18T03:24:33;13.70;99.90
32728;DHT22;55292;51.844;19.246;2023-09-18T03:29:36;13.50;99.90
32728;DHT22;55292;51.844;19.246;2023-09-18T03:34:39;13.80;99.90
32728;DHT22;55292;51.844;19.246;2023-09-18T03:39:44;13.80;99.90
32728;DHT22;55292;51.844;19.246;2023-09-18T03:44:47;13.80;99.90
32728;DHT22;55292;51.844;19.246;2023-09-18T03:49:50;13.90;99.90
32728;DHT22;55292;51.844;19.246;2023-09-18T03:54:53;13.90;99.90
32728;DHT22;55292;51.844;19.246;2023-09-18T03:59:56;13.90;99.90
32728;DHT22;55292;51.844;19.246;2023-09-18T04:04:59;13.90;99.90
32728;DHT22;55292;51.844;19.246;2023-09-18T04:10:03;13.80;99.90
32728;DHT22;55292;51.844;19.246;2023-09-18T04:15:06;13.70;99.90
32728;DHT22;55292;51.844;19.246;2023-09-18T04:20:09;13.70;99.90
32728;DHT22;55292;51.844;19.246;2023-09-18T04:25:12;13.60;99.90
32728;DHT22;55292;51.844;19.246;2023-09-18T04:30:15;13.60;99.90
32728;DHT22;55292;51.844;19.246;2023-09-18T04:35:22;13.70;99.90
32728;DHT22;55292;51.844;19.246;2023-09-18T04:40:29;13.80;99.90
32728;DHT22;55292;51.844;19.246;2023-09-18T04:45:34;13.90;99.90
32728;DHT22;55292;51.844;19.246;2023-09-18T04:50:38;14.30;99.90
32728;DHT22;55292;51.844;19.246;2023-09-18T04:55:41;14.80;99.90
32728;DHT22;55292;51.844;19.246;2023-09-18T05:00:44;15.20;99.90
32728;DHT22;55292;51.844;19.246;2023-09-18T05:05:47;15.20;99.90
32728;DHT22;55292;51.844;19.246;2023-09-18T05:10:50;15.20;99.90
32728;DHT22;55292;51.844;19.246;2023-09-18T05:15:52;15.30;99.90
32728;DHT22;55292;51.844;19.246;2023-09-18T05:20:56;15.40;99.90
32728;DHT22;55292;51.844;19.246;2023-09-18T05:25:58;15.60;99.90
32728;DHT22;55292;51.844;19.246;2023-09-18T05:31:02;15.90;99.90
32728;DHT22;55292;51.844;19.246;2023-09-18T05:36:05;16.10;99.90
32728;DHT22;55292;51.844;19.246;2023-09-18T05:41:08;16.50;99.90
32728;DHT22;55292;51.844;19.246;2023-09-18T05:46:11;16.90;99.90
32728;DHT22;55292;51.844;19.246;2023-09-18T05:51:14;17.20;99.90
32728;DHT22;55292;51.844;19.246;2023-09-18T05:56:17;17.50;99.90
32728;DHT22;55292;51.844;19.246;2023-09-18T06:01:20;17.60;99.90
32728;DHT22;55292;51.844;19.246;2023-09-18T06:06:22;17.50;99.90
32728;DHT22;55292;51.844;19.246;2023-09-18T06:11:25;17.90;99.90
32728;DHT22;55292;51.844;19.246;2023-09-18T06:16:30;18.20;99.90
32728;DHT22;55292;51.844;19.246;2023-09-18T06:21:33;18.70;99.90
32728;DHT22;55292;51.844;19.246;2023-09-18T06:26:36;19.20;99.90
32728;DHT22;55292;51.844;19.246;2023-09-18T06:31:39;19.50;99.90
32728;DHT22;55292;51.844;19.246;2023-09-18T06:36:41;20.00;99.90
32728;DHT22;55292;51.844;19.246;2023-09-18T06:41:44;20.40;99.90
32728;DHT22;55292;51.844;19.246;2023-09-18T06:46:47;20.60;99.90
32728;DHT22;55292;51.844;19.246;2023-09-18T06:51:50;20.80;99.90
32728;DHT22;55292;51.844;19.246;2023-09-18T06:56:53;20.90;99.90
32728;DHT22;55292;51.844;19.246;2023-09-18T07:01:55;21.00;99.90
32728;DHT22;55292;51.844;19.246;2023-09-18T07:06:58;21.20;99.90
32728;DHT22;55292;51.844;19.246;2023-09-18T07:12:01;21.30;99.90
32728;DHT22;55292;51.844;19.246;2023-09-18T07:17:05;21.50;99.90
32728;DHT22;55292;51.844;19.246;2023-09-18T07:22:08;21.60;99.90
32728;DHT22;55292;51.844;19.246;2023-09-18T07:27:10;22.00;99.90
32728;DHT22;55292;51.844;19.246;2023-09-18T07:32:13;22.50;99.90
32728;DHT22;55292;51.844;19.246;2023-09-18T07:37:31;23.00;99.90
32728;DHT22;55292;51.844;19.246;2023-09-18T07:42:34;23.30;99.90
32728;DHT22;55292;51.844;19.246;2023-09-18T07:47:36;23.50;99.90
32728;DHT22;55292;51.844;19.246;2023-09-18T07:52:39;23.80;99.90
32728;DHT22;55292;51.844;19.246;2023-09-18T07:57:42;23.90;99.90
32728;DHT22;55292;51.844;19.246;2023-09-18T08:02:46;24.00;99.90
32728;DHT22;55292;51.844;19.246;2023-09-18T08:07:52;24.40;99.90
32728;DHT22;55292;51.844;19.246;2023-09-18T08:12:55;24.50;99.90
32728;DHT22;55292;51.844;19.246;2023-09-18T08:17:58;24.60;99.90
32728;DHT22;55292;51.844;19.246;2023-09-18T08:23:01;24.50;99.90
32728;DHT22;55292;51.844;19.246;2023-09-18T08:28:05;24.50;99.90
32728;DHT22;55292;51.844;19.246;2023-09-18T08:33:11;24.40;99.90
32728;DHT22;55292;51.844;19.246;2023-09-18T08:38:14;24.50;99.90
32728;DHT22;55292;51.844;19.246;2023-09-18T08:43:18;24.50;99.90
32728;DHT22;55292;51.844;19.246;2023-09-18T08:48:21;24.70;99.90
32728;DHT22;55292;51.844;19.246;2023-09-18T08:53:24;24.70;99.90
32728;DHT22;55292;51.844;19.246;2023-09-18T08:58:35;24.80;99.90
32728;DHT22;55292;51.844;19.246;2023-09-18T09:03:40;24.90;99.90
32728;DHT22;55292;51.844;19.246;2023-09-18T09:08:44;25.10;99.90
32728;DHT22;55292;51.844;19.246;2023-09-18T09:13:47;25.10;99.90
32728;DHT22;55292;51.844;19.246;2023-09-18T09:18:50;25.30;99.90
32728;DHT22;55292;51.844;19.246;2023-09-18T09:23:54;25.40;99.90
32728;DHT22;55292;51.844;19.246;2023-09-18T09:29:18;25.40;99.90
32728;DHT22;55292;51.844;19.246;2023-09-18T09:34:27;25.40;99.90
32728;DHT22;55292;51.844;19.246;2023-09-18T09:39:33;25.40;99.90
32728;DHT22;55292;51.844;19.246;2023-09-18T09:44:36;25.60;99.90
32728;DHT22;55292;51.844;19.246;2023-09-18T09:49:47;25.70;99.90
32728;DHT22;55292;51.844;19.246;2023-09-18T09:54:50;25.70;99.90
32728;DHT22;55292;51.844;19.246;2023-09-18T10:00:03;25.90;99.90
32728;DHT22;55292;51.844;19.246;2023-09-18T10:05:27;25.80;99.90
32728;DHT22;55292;51.844;19.246;2023-09-18T10:10:35;26.10;99.90
32728;DHT22;55292;51.844;19.246;2023-09-18T10:15:39;26.20;99.90
32728;DHT22;55292;51.844;19.246;2023-09-18T10:20:46;26.40;99.90
32728;DHT22;55292;51.844;19.246;2023-09-18T10:25:55;26.20;99.90
32728;DHT22;55292;51.844;19.246;2023-09-18T10:30:58;26.10;99.90
32728;DHT22;55292;51.844;19.246;2023-09-18T10:36:02;26.80;99.90
32728;DHT22;55292;51.844;19.246;2023-09-18T10:41:06;27.30;99.90
32728;DHT22;55292;51.844;19.246;2023-09-18T10:46:12;27.30;99.90
32728;DHT22;55292;51.844;19.246;2023-09-18T10:51:20;27.60;99.90
32728;DHT22;55292;51.844;19.246;2023-09-18T10:56:24;28.00;96.70
32728;DHT22;55292;51.844;19.246;2023-09-18T11:01:31;27.50;95.80
32728;DHT22;55292;51.844;19.246;2023-09-18T11:17:05;27.60;95.20
32728;DHT22;55292;51.844;19.246;2023-09-18T11:22:08;27.70;95.90
32728;DHT22;55292;51.844;19.246;2023-09-18T11:27:12;28.00;95.30
32728;DHT22;55292;51.844;19.246;2023-09-18T11:32:38;27.70;96.90
32728;DHT22;55292;51.844;19.246;2023-09-18T11:37:43;27.30;94.30
32728;DHT22;55292;51.844;19.246;2023-09-18T11:43:18;26.90;95.00
32728;DHT22;55292;51.844;19.246;2023-09-18T11:48:24;27.30;94.40
32728;DHT22;55292;51.844;19.246;2023-09-18T11:53:33;27.70;94.00
32728;DHT22;55292;51.844;19.246;2023-09-18T11:58:45;27.70;93.80
32728;DHT22;55292;51.844;19.246;2023-09-18T12:04:00;27.50;92.50
32728;DHT22;55292;51.844;19.246;2023-09-18T12:09:03;27.60;92.50
32728;DHT22;55292;51.844;19.246;2023-09-18T12:14:06;27.70;90.60
32728;DHT22;55292;51.844;19.246;2023-09-18T12:19:16;27.50;90.10
32728;DHT22;55292;51.844;19.246;2023-09-18T12:24:25;27.50;90.00
32728;DHT22;55292;51.844;19.246;2023-09-18T12:29:32;27.30;89.10
32728;DHT22;55292;51.844;19.246;2023-09-18T12:34:35;27.30;87.80
32728;DHT22;55292;51.844;19.246;2023-09-18T12:39:38;27.30;89.00
32728;DHT22;55292;51.844;19.246;2023-09-18T12:44:40;27.20;89.70
32728;DHT22;55292;51.844;19.246;2023-09-18T12:49:43;27.30;89.60
32728;DHT22;55292;51.844;19.246;2023-09-18T12:54:46;27.10;90.20
32728;DHT22;55292;51.844;19.246;2023-09-18T12:59:56;26.90;90.40
32728;DHT22;55292;51.844;19.246;2023-09-18T13:04:59;27.00;90.90
32728;DHT22;55292;51.844;19.246;2023-09-18T13:10:06;27.10;91.30
32728;DHT22;55292;51.844;19.246;2023-09-18T13:15:12;27.00;90.80
32728;DHT22;55292;51.844;19.246;2023-09-18T13:20:18;27.00;90.00
32728;DHT22;55292;51.844;19.246;2023-09-18T13:25:25;27.10;90.80
32728;DHT22;55292;51.844;19.246;2023-09-18T13:30:28;27.00;88.90
32728;DHT22;55292;51.844;19.246;2023-09-18T13:35:31;27.00;90.00
32728;DHT22;55292;51.844;19.246;2023-09-18T13:40:41;26.90;89.50
32728;DHT22;55292;51.844;19.246;2023-09-18T13:45:44;26.80;89.80
32728;DHT22;55292;51.844;19.246;2023-09-18T13:50:48;26.80;90.40
32728;DHT22;55292;51.844;19.246;2023-09-18T13:55:52;26.80;91.20
32728;DHT22;55292;51.844;19.246;2023-09-18T14:00:54;26.70;90.50
32728;DHT22;55292;51.844;19.246;2023-09-18T14:05:57;26.60;88.50
32728;DHT22;55292;51.844;19.246;2023-09-18T14:11:00;26.40;87.70
32728;DHT22;55292;51.844;19.246;2023-09-18T14:16:03;26.40;87.40
32728;DHT22;55292;51.844;19.246;2023-09-18T14:21:06;26.30;85.30
32728;DHT22;55292;51.844;19.246;2023-09-18T14:26:09;26.30;85.70
32728;DHT22;55292;51.844;19.246;2023-09-18T14:31:14;26.30;85.90
32728;DHT22;55292;51.844;19.246;2023-09-18T14:36:17;26.20;83.20
32728;DHT22;55292;51.844;19.246;2023-09-18T14:41:20;26.00;83.40
32728;DHT22;55292;51.844;19.246;2023-09-18T14:46:24;26.00;85.50
32728;DHT22;55292;51.844;19.246;2023-09-18T14:51:28;25.70;86.00
32728;DHT22;55292;51.844;19.246;2023-09-18T14:56:32;25.60;83.50
32728;DHT22;55292;51.844;19.246;2023-09-18T15:01:35;25.60;84.60
32728;DHT22;55292;51.844;19.246;2023-09-18T15:06:38;25.60;85.80
32728;DHT22;55292;51.844;19.246;2023-09-18T15:11:40;25.50;87.20
32728;DHT22;55292;51.844;19.246;2023-09-18T15:16:43;25.40;88.90
32728;DHT22;55292;51.844;19.246;2023-09-18T15:21:46;25.40;88.60
32728;DHT22;55292;51.844;19.246;2023-09-18T15:26:48;25.30;90.20
32728;DHT22;55292;51.844;19.246;2023-09-18T15:31:51;25.30;89.90
32728;DHT22;55292;51.844;19.246;2023-09-18T15:36:54;25.20;90.00
32728;DHT22;55292;51.844;19.246;2023-09-18T15:41:59;25.10;90.70
32728;DHT22;55292;51.844;19.246;2023-09-18T15:47:01;24.80;91.10
32728;DHT22;55292;51.844;19.246;2023-09-18T15:52:04;24.70;91.30
32728;DHT22;55292;51.844;19.246;2023-09-18T15:57:07;24.50;91.50
32728;DHT22;55292;51.844;19.246;2023-09-18T16:02:10;24.10;92.60
32728;DHT22;55292;51.844;19.246;2023-09-18T16:07:13;23.70;93.30
32728;DHT22;55292;51.844;19.246;2023-09-18T16:12:16;23.60;93.30
32728;DHT22;55292;51.844;19.246;2023-09-18T16:17:19;23.40;93.50
32728;DHT22;55292;51.844;19.246;2023-09-18T16:22:22;23.10;94.30
32728;DHT22;55292;51.844;19.246;2023-09-18T16:27:28;23.00;94.60
32728;DHT22;55292;51.844;19.246;2023-09-18T16:32:31;22.70;95.10
32728;DHT22;55292;51.844;19.246;2023-09-18T16:37:34;22.50;95.90
32728;DHT22;55292;51.844;19.246;2023-09-18T16:42:37;22.10;96.30
32728;DHT22;55292;51.844;19.246;2023-09-18T16:47:40;21.80;97.00
32728;DHT22;55292;51.844;19.246;2023-09-18T16:52:42;21.60;97.60
32728;DHT22;55292;51.844;19.246;2023-09-18T16:57:48;21.40;98.20
32728;DHT22;55292;51.844;19.246;2023-09-18T17:02:51;21.20;98.80
32728;DHT22;55292;51.844;19.246;2023-09-18T17:07:54;21.10;99.30
32728;DHT22;55292;51.844;19.246;2023-09-18T17:12:58;21.00;99.90
32728;DHT22;55292;51.844;19.246;2023-09-18T17:18:01;20.80;99.90
32728;DHT22;55292;51.844;19.246;2023-09-18T17:23:06;20.60;99.90
32728;DHT22;55292;51.844;19.246;2023-09-18T17:28:10;20.30;99.90
32728;DHT22;55292;51.844;19.246;2023-09-18T17:33:14;20.30;99.90
32728;DHT22;55292;51.844;19.246;2023-09-18T17:38:17;20.10;99.90
32728;DHT22;55292;51.844;19.246;2023-09-18T17:43:20;19.90;99.90
32728;DHT22;55292;51.844;19.246;2023-09-18T17:48:23;19.80;99.90
32728;DHT22;55292;51.844;19.246;2023-09-18T17:53:26;19.70;99.90
32728;DHT22;55292;51.844;19.246;2023-09-18T17:58:29;19.70;99.90
32728;DHT22;55292;51.844;19.246;2023-09-18T18:03:32;19.60;99.90
32728;DHT22;55292;51.844;19.246;2023-09-18T18:08:37;19.60;99.90
32728;DHT22;55292;51.844;19.246;2023-09-18T18:13:40;19.60;99.90
32728;DHT22;55292;51.844;19.246;2023-09-18T18:18:43;19.70;99.90
32728;DHT22;55292;51.844;19.246;2023-09-18T18:23:47;19.70;99.90
32728;DHT22;55292;51.844;19.246;2023-09-18T18:28:49;19.50;99.90
32728;DHT22;55292;51.844;19.246;2023-09-18T18:33:54;19.30;99.90
32728;DHT22;55292;51.844;19.246;2023-09-18T18:38:59;19.30;99.90
32728;DHT22;55292;51.844;19.246;2023-09-18T18:44:02;19.20;99.90
32728;DHT22;55292;51.844;19.246;2023-09-18T18:49:05;19.00;99.90
32728;DHT22;55292;51.844;19.246;2023-09-18T18:54:08;18.70;99.90
32728;DHT22;55292;51.844;19.246;2023-09-18T18:59:11;18.60;99.90
32728;DHT22;55292;51.844;19.246;2023-09-18T19:04:13;18.50;99.90
32728;DHT22;55292;51.844;19.246;2023-09-18T19:09:17;18.40;99.90
32728;DHT22;55292;51.844;19.246;2023-09-18T19:14:20;18.40;99.90
32728;DHT22;55292;51.844;19.246;2023-09-18T19:19:22;18.30;99.90
32728;DHT22;55292;51.844;19.246;2023-09-18T19:24:25;18.30;99.90
32728;DHT22;55292;51.844;19.246;2023-09-18T19:29:28;18.20;99.90
32728;DHT22;55292;51.844;19.246;2023-09-18T19:34:33;18.20;99.90
32728;DHT22;55292;51.844;19.246;2023-09-18T19:39:36;18.00;99.90
32728;DHT22;55292;51.844;19.246;2023-09-18T19:44:39;17.80;99.90
32728;DHT22;55292;51.844;19.246;2023-09-18T19:49:45;17.60;99.90
32728;DHT22;55292;51.844;19.246;2023-09-18T19:54:48;17.50;99.90
32728;DHT22;55292;51.844;19.246;2023-09-18T19:59:53;17.40;99.90
32728;DHT22;55292;51.844;19.246;2023-09-18T20:04:56;17.30;99.90
32728;DHT22;55292;51.844;19.246;2023-09-18T20:10:02;17.30;99.90
32728;DHT22;55292;51.844;19.246;2023-09-18T20:15:07;17.30;99.90
32728;DHT22;55292;51.844;19.246;2023-09-18T20:20:11;17.40;99.90
32728;DHT22;55292;51.844;19.246;2023-09-18T20:25:13;17.60;99.90
32728;DHT22;55292;51.844;19.246;2023-09-18T20:30:16;17.70;99.90
32728;DHT22;55292;51.844;19.246;2023-09-18T20:35:20;17.90;99.90
32728;DHT22;55292;51.844;19.246;2023-09-18T20:40:23;18.00;99.90
32728;DHT22;55292;51.844;19.246;2023-09-18T20:45:26;18.00;99.90
32728;DHT22;55292;51.844;19.246;2023-09-18T20:50:28;18.00;99.90
32728;DHT22;55292;51.844;19.246;2023-09-18T20:55:31;18.00;99.90
32728;DHT22;55292;51.844;19.246;2023-09-18T21:00:34;18.00;99.90
32728;DHT22;55292;51.844;19.246;2023-09-18T21:05:37;17.90;99.90
32728;DHT22;55292;51.844;19.246;2023-09-18T21:10:40;18.00;99.90
32728;DHT22;55292;51.844;19.246;2023-09-18T21:15:42;17.90;99.90
32728;DHT22;55292;51.844;19.246;2023-09-18T21:20:45;17.90;99.90
32728;DHT22;55292;51.844;19.246;2023-09-18T21:25:49;17.90;99.90
32728;DHT22;55292;51.844;19.246;2023-09-18T21:30:52;17.80;99.90
32728;DHT22;55292;51.844;19.246;2023-09-18T21:35:55;17.80;99.90
32728;DHT22;55292;51.844;19.246;2023-09-18T21:40:58;17.80;99.90
32728;DHT22;55292;51.844;19.246;2023-09-18T21:46:01;17.70;99.90
32728;DHT22;55292;51.844;19.246;2023-09-18T21:51:05;17.70;99.90
32728;DHT22;55292;51.844;19.246;2023-09-18T21:56:09;17.80;99.90
32728;DHT22;55292;51.844;19.246;2023-09-18T22:01:12;17.90;99.90
32728;DHT22;55292;51.844;19.246;2023-09-18T22:06:16;17.80;99.90
32728;DHT22;55292;51.844;19.246;2023-09-18T22:11:19;17.80;99.90
32728;DHT22;55292;51.844;19.246;2023-09-18T22:16:24;17.90;99.90
32728;DHT22;55292;51.844;19.246;2023-09-18T22:21:26;17.90;99.90
32728;DHT22;55292;51.844;19.246;2023-09-18T22:26:29;17.90;99.90
32728;DHT22;55292;51.844;19.246;2023-09-18T22:31:33;17.90;99.90
32728;DHT22;55292;51.844;19.246;2023-09-18T22:36:35;17.90;99.90
32728;DHT22;55292;51.844;19.246;2023-09-18T22:57:48;17.50;99.90
32728;DHT22;55292;51.844;19.246;2023-09-18T23:02:57;17.40;99.90
32728;DHT22;55292;51.844;19.246;2023-09-18T23:08:02;17.20;99.90
32728;DHT22;55292;51.844;19.246;2023-09-18T23:13:10;17.20;99.90
32728;DHT22;55292;51.844;19.246;2023-09-18T23:18:14;17.10;99.90
32728;DHT22;55292;51.844;19.246;2023-09-18T23:23:19;17.20;99.90
32728;DHT22;55292;51.844;19.246;2023-09-18T23:28:22;17.20;99.90
32728;DHT22;55292;51.844;19.246;2023-09-18T23:33:25;17.20;99.90
32728;DHT22;55292;51.844;19.246;2023-09-18T23:38:30;17.30;99.90
32728;DHT22;55292;51.844;19.246;2023-09-18T23:43:35;17.40;99.90
32728;DHT22;55292;51.844;19.246;2023-09-18T23:48:39;17.60;99.90
32728;DHT22;55292;51.844;19.246;2023-09-18T23:53:44;17.90;99.90
32728;DHT22;55292;51.844;19.246;2023-09-18T23:58:47;18.10;99.90
